Time;durP1;ratioP1;P1;durP2;ratioP2;P2;SDS_P1;SDS_P2;PMS_P1;PMS_P2;Temp;Humidity;BMP_temperature;BMP_pressure;BME280_temperature;BME280_humidity;BME280_pressure;Samples;Min_cycle;Max_cycle;Signal;HPM_P1;HPM_P2
2021/07/11 00:00:56;;;;;;;;;;;;;;;26.84;53.69;100566.41;1759304;79;20155;-61
2021/07/11 00:03:23;;;;;;;;;;;;;;;26.83;53.69;100557.22;1752102;80;20202;-62
2021/07/11 00:05:49;;;;;;;;;;;;;;;26.84;53.71;100559.43;1747288;79;20351;-62
2021/07/11 00:08:14;;;;;;;;;;;;;;;26.85;53.75;100558.87;1743133;80;21105;-61
2021/07/11 00:10:40;;;;;;;;;;;;;;;26.84;53.74;100555.23;1753389;79;21908;-62
2021/07/11 00:13:06;;;;;;;;;;;;;;;26.83;53.77;100554.43;1752170;79;20189;-62
2021/07/11 00:15:32;;;;;;;;;;;;;;;26.83;53.77;100553.03;1752254;79;20231;-62
2021/07/11 00:18:00;;;;;;;;;;;;;;;26.83;53.80;100553.61;1747967;79;20270;-61
2021/07/11 00:20:26;;;;;;;;;;;;;;;26.83;53.83;100550.24;1747857;79;20194;-61
2021/07/11 00:22:52;;;;;;;;;;;;;;;26.83;53.83;100548.84;1753275;80;21771;-61
2021/07/11 00:25:18;;;;;;;;;;;;;;;26.82;53.85;100541.64;1747852;79;20762;-61
2021/07/11 00:27:44;;;;;;;;;;;;;;;26.82;53.86;100545.83;1749327;80;20210;-61
2021/07/11 00:30:12;;;;;;;;;;;;;;;26.83;53.87;100550.83;1788345;77;20238;-62
2021/07/11 00:32:38;;;;;;;;;;;;;;;26.84;53.90;100551.05;1775625;78;20209;-62
2021/07/11 00:35:04;;;;;;;;;;;;;;;26.83;53.90;100546.64;1774850;79;21147;-61
2021/07/11 00:37:30;;;;;;;;;;;;;;;26.83;53.92;100553.61;1747630;80;20400;-62
2021/07/11 00:39:56;;;;;;;;;;;;;;;26.83;53.95;100548.84;1757763;80;20240;-62
2021/07/11 00:42:22;;;;;;;;;;;;;;;26.83;53.96;100546.64;1769730;78;20186;-61
2021/07/11 00:44:48;;;;;;;;;;;;;;;26.82;53.98;100547.22;1764412;79;20533;-61
2021/07/11 00:47:14;;;;;;;;;;;;;;;26.82;53.99;100548.62;1766953;79;21133;-61
2021/07/11 00:49:43;;;;;;;;;;;;;;;26.81;54.00;100544.81;1749783;80;21610;-62
2021/07/11 00:52:10;;;;;;;;;;;;;;;26.82;54.00;100542.22;1767273;78;20371;-62
2021/07/11 00:54:36;;;;;;;;;;;;;;;26.82;54.04;100548.62;1774817;78;20207;-62
2021/07/11 00:57:03;;;;;;;;;;;;;;;26.82;54.06;100544.43;1777714;79;20191;-62
2021/07/11 00:59:28;;;;;;;;;;;;;;;26.83;54.08;100539.66;1762409;78;20999;-62
2021/07/11 01:02:03;;;;;;;;;;;;;;;26.81;54.08;100539.23;1758554;79;21117;-62
2021/07/11 01:04:34;;;;;;;;;;;;;;;26.82;54.11;100539.44;1766732;79;20203;-62
2021/07/11 01:07:02;;;;;;;;;;;;;;;26.81;54.11;100534.47;1774385;79;20192;-62
2021/07/11 01:09:37;;;;;;;;;;;;;;;26.81;54.13;100531.67;1772883;79;20565;-62
2021/07/11 01:12:06;;;;;;;;;;;;;;;26.80;54.14;100532.84;1774834;78;21150;-62
2021/07/11 01:14:32;;;;;;;;;;;;;;;26.82;54.17;100529.66;1772542;78;20588;-62
2021/07/11 01:16:58;;;;;;;;;;;;;;;26.80;54.16;100525.86;1776412;78;20366;-62
2021/07/11 01:19:46;;;;;;;;;;;;;;;26.80;54.20;100525.86;1766908;79;20215;-62
2021/07/11 01:22:13;;;;;;;;;;;;;;;26.80;54.21;100522.26;1758470;79;20198;-62
2021/07/11 01:24:55;;;;;;;;;;;;;;;26.80;54.21;100520.86;1760480;79;20807;-62
2021/07/11 01:27:21;;;;;;;;;;;;;;;26.79;54.24;100527.03;1756033;80;21840;-62
2021/07/11 01:29:47;;;;;;;;;;;;;;;26.79;54.26;100524.23;1754873;80;20240;-62
2021/07/11 01:32:14;;;;;;;;;;;;;;;26.79;54.27;100519.23;1732604;80;20375;-63
2021/07/11 01:34:41;;;;;;;;;;;;;;;26.79;54.28;100529.01;1753456;80;20509;-62
2021/07/11 01:37:07;;;;;;;;;;;;;;;26.78;54.29;100524.01;1754212;80;21097;-62
2021/07/11 01:39:33;;;;;;;;;;;;;;;26.78;54.32;100520.41;1756108;80;20147;-63
2021/07/11 01:41:59;;;;;;;;;;;;;;;26.79;54.33;100523.42;1748196;80;20228;-63
2021/07/11 01:44:27;;;;;;;;;;;;;;;26.78;54.35;100521.22;1749426;80;20361;-63
2021/07/11 01:46:53;;;;;;;;;;;;;;;26.79;54.39;100517.84;1748188;80;20195;-62
2021/07/11 01:49:19;;;;;;;;;;;;;;;26.78;54.39;100522.61;1741023;81;21297;-63
2021/07/11 01:51:47;;;;;;;;;;;;;;;26.79;54.43;100524.82;1748532;80;20165;-63
2021/07/11 01:54:13;;;;;;;;;;;;;;;26.78;54.42;100521.22;1725888;80;20235;-63
2021/07/11 01:56:40;;;;;;;;;;;;;;;26.78;54.46;100525.41;1749976;80;20409;-63
2021/07/11 01:59:09;;;;;;;;;;;;;;;26.78;54.47;100521.80;1749409;80;20186;-63
2021/07/11 02:01:35;;;;;;;;;;;;;;;26.78;54.49;100524.59;1749396;80;21062;-62
2021/07/11 02:04:02;;;;;;;;;;;;;;;26.78;54.49;100523.20;1753919;80;20778;-62
2021/07/11 02:06:28;;;;;;;;;;;;;;;26.78;54.55;100532.38;1748670;80;20202;-62
2021/07/11 02:08:54;;;;;;;;;;;;;;;26.77;54.56;100527.19;1756221;80;20178;-62
2021/07/11 02:11:20;;;;;;;;;;;;;;;26.77;54.60;100526.60;1756569;80;20233;-62
2021/07/11 02:13:49;;;;;;;;;;;;;;;26.78;54.60;100525.98;1757126;80;21162;-62
2021/07/11 02:16:40;;;;;;;;;;;;;;;26.76;54.64;100523.58;1754293;80;20481;-62
2021/07/11 02:19:06;;;;;;;;;;;;;;;26.77;54.65;100525.20;1683159;83;20449;-62
2021/07/11 02:21:31;;;;;;;;;;;;;;;26.77;54.65;100523.00;1698460;81;20738;-62
2021/07/11 02:23:58;;;;;;;;;;;;;;;26.76;54.67;100521.38;1757233;80;20248;-61
2021/07/11 02:26:25;;;;;;;;;;;;;;;26.76;54.68;100524.17;1760254;80;21223;-62
2021/07/11 02:28:50;;;;;;;;;;;;;;;26.75;54.70;100522.55;1757540;79;20183;-62
2021/07/11 02:31:17;;;;;;;;;;;;;;;26.76;54.73;100529.75;1770057;79;20261;-62
2021/07/11 02:33:43;;;;;;;;;;;;;;;26.75;54.74;100532.31;1761856;79;20232;-62
2021/07/11 02:36:17;;;;;;;;;;;;;;;26.76;54.80;100538.13;1757780;79;20200;-62
2021/07/11 02:39:02;;;;;;;;;;;;;;;26.76;54.79;100532.54;1758602;79;21268;-62
2021/07/11 02:41:29;;;;;;;;;;;;;;;26.75;54.81;100533.70;1754380;79;20604;-63
2021/07/11 02:43:56;;;;;;;;;;;;;;;26.74;54.83;100535.69;1764885;79;20283;-63
2021/07/11 02:46:24;;;;;;;;;;;;;;;26.75;54.86;100539.29;1753828;79;20299;-62
2021/07/11 02:48:50;;;;;;;;;;;;;;;26.75;54.87;100537.89;1752821;79;20196;-63
2021/07/11 02:51:17;;;;;;;;;;;;;;;26.74;54.89;100537.66;1756418;79;21216;-62
2021/07/11 02:53:44;;;;;;;;;;;;;;;26.74;54.92;100544.06;1746561;79;20479;-63
2021/07/11 02:56:11;;;;;;;;;;;;;;;26.74;54.95;100541.85;1755800;79;20200;-63
2021/07/11 02:58:37;;;;;;;;;;;;;;;26.74;54.95;100550.22;1754534;79;20975;-63
2021/07/11 03:01:03;;;;;;;;;;;;;;;26.74;54.97;100543.25;1755291;79;20156;-62
2021/07/11 03:03:29;;;;;;;;;;;;;;;26.73;55.00;100557.78;1756236;79;21277;-63
2021/07/11 03:05:55;;;;;;;;;;;;;;;26.73;55.02;100558.40;1756793;79;20621;-63
2021/07/11 03:08:21;;;;;;;;;;;;;;;26.74;55.03;100559.99;1761974;79;20140;-63
2021/07/11 03:10:47;;;;;;;;;;;;;;;26.73;55.06;100563.37;1763128;79;22083;-62
2021/07/11 03:13:13;;;;;;;;;;;;;;;26.72;55.07;100567.36;1763109;79;20179;-63
2021/07/11 03:15:39;;;;;;;;;;;;;;;26.73;55.08;100570.95;1754851;79;21099;-63
2021/07/11 03:18:04;;;;;;;;;;;;;;;26.72;55.08;100563.17;1758162;79;20248;-63
2021/07/11 03:20:30;;;;;;;;;;;;;;;26.72;55.10;100565.96;1793654;78;20283;-62
2021/07/11 03:22:56;;;;;;;;;;;;;;;26.73;55.14;100566.77;1754809;79;20252;-63
2021/07/11 03:25:22;;;;;;;;;;;;;;;26.72;55.12;100567.94;1735157;81;20290;-63
2021/07/11 03:27:48;;;;;;;;;;;;;;;26.72;55.15;100570.14;1756004;79;21015;-63
2021/07/11 03:30:18;;;;;;;;;;;;;;;26.73;55.17;100575.14;1740804;80;20295;-62
2021/07/11 03:32:45;;;;;;;;;;;;;;;26.72;55.18;100570.14;1758318;80;20230;-62
2021/07/11 03:35:13;;;;;;;;;;;;;;;26.73;55.22;100573.14;1750614;80;20240;-63
2021/07/11 03:37:41;;;;;;;;;;;;;;;26.72;55.21;100570.14;1748160;80;20464;-63
2021/07/11 03:40:07;;;;;;;;;;;;;;;26.73;55.22;100573.14;1751274;80;23173;-63
2021/07/11 03:42:37;;;;;;;;;;;;;;;26.72;55.25;100567.94;1752246;80;20414;-63
2021/07/11 03:45:03;;;;;;;;;;;;;;;26.72;55.24;100567.36;1755963;80;20231;-63
2021/07/11 03:47:36;;;;;;;;;;;;;;;26.72;55.27;100569.33;1761901;80;20407;-63
2021/07/11 03:50:04;;;;;;;;;;;;;;;26.72;55.29;100572.94;1752729;80;20411;-63
2021/07/11 03:52:30;;;;;;;;;;;;;;;26.72;55.29;100571.55;1755226;80;21225;-63
2021/07/11 03:54:56;;;;;;;;;;;;;;;26.72;55.31;100578.52;1744970;80;20744;-63
2021/07/11 03:57:27;;;;;;;;;;;;;;;26.72;55.31;100573.52;1755372;80;20197;-63
2021/07/11 03:59:53;;;;;;;;;;;;;;;26.72;55.35;100573.52;1764247;80;20234;-62
2021/07/11 04:02:19;;;;;;;;;;;;;;;26.72;55.34;100575.73;1758661;80;20233;-61
2021/07/11 04:04:45;;;;;;;;;;;;;;;26.72;55.34;100572.94;1746793;80;21111;-62
2021/07/11 04:07:10;;;;;;;;;;;;;;;26.72;55.37;100578.52;1758161;80;20183;-62
2021/07/11 04:09:36;;;;;;;;;;;;;;;26.72;55.38;100572.13;1735732;81;20199;-63
2021/07/11 04:12:03;;;;;;;;;;;;;;;26.72;55.40;100580.50;1749677;80;20162;-63
2021/07/11 04:14:29;;;;;;;;;;;;;;;26.72;55.42;100574.33;1752828;80;20433;-62
2021/07/11 04:16:56;;;;;;;;;;;;;;;26.71;55.43;100574.10;1757280;80;21881;-63
2021/07/11 04:19:25;;;;;;;;;;;;;;;26.72;55.44;100576.31;1740478;80;20156;-62
2021/07/11 04:21:52;;;;;;;;;;;;;;;26.71;55.46;100576.89;1750706;80;20191;-63
2021/07/11 04:24:18;;;;;;;;;;;;;;;26.71;55.48;100572.70;1756911;80;20208;-62
2021/07/11 04:26:44;;;;;;;;;;;;;;;26.72;55.49;100578.52;1753555;80;20172;-62
2021/07/11 04:29:10;;;;;;;;;;;;;;;26.71;55.47;100580.27;1730309;80;21066;-62
2021/07/11 04:31:36;;;;;;;;;;;;;;;26.72;55.49;100577.70;1754162;79;20270;-62
2021/07/11 04:34:21;;;;;;;;;;;;;;;26.71;55.50;100578.29;1766322;79;20231;-62
2021/07/11 04:36:47;;;;;;;;;;;;;;;26.71;55.51;100577.48;1762840;79;20191;-62
2021/07/11 04:39:13;;;;;;;;;;;;;;;26.72;55.51;100584.69;1764028;79;20245;-62
2021/07/11 04:41:41;;;;;;;;;;;;;;;26.71;55.54;100585.85;1769294;79;21750;-62
2021/07/11 04:44:06;;;;;;;;;;;;;;;26.71;55.55;100578.29;1759233;80;20508;-63
2021/07/11 04:46:32;;;;;;;;;;;;;;;26.71;55.56;100581.66;1764324;79;20189;-63
2021/07/11 04:48:58;;;;;;;;;;;;;;;26.71;55.57;100580.27;1770100;79;22185;-63
2021/07/11 04:51:24;;;;;;;;;;;;;;;26.71;55.57;100583.88;1769174;79;20244;-61
2021/07/11 04:53:50;;;;;;;;;;;;;;;26.71;55.60;100585.85;1765046;79;21035;-62
2021/07/11 04:56:16;;;;;;;;;;;;;;;26.70;55.60;100580.85;1762140;79;20189;-62
2021/07/11 04:58:41;;;;;;;;;;;;;;;26.71;55.62;100589.45;1757810;79;20320;-62
2021/07/11 05:01:07;;;;;;;;;;;;;;;26.71;55.62;100585.85;1772423;79;20725;-63
2021/07/11 05:03:33;;;;;;;;;;;;;;;26.71;55.63;100585.85;1768718;79;20223;-61
2021/07/11 05:05:59;;;;;;;;;;;;;;;26.71;55.59;100585.85;1773087;79;23342;-61
2021/07/11 05:08:25;;;;;;;;;;;;;;;26.66;55.28;100581.36;1767409;79;20176;-61
2021/07/11 05:10:51;;;;;;;;;;;;;;;26.61;55.06;100578.84;1770808;79;20138;-61
2021/07/11 05:13:17;;;;;;;;;;;;;;;26.55;54.89;100573.34;1770298;79;20211;-61
2021/07/11 05:15:43;;;;;;;;;;;;;;;26.52;54.79;100578.84;1769136;80;20804;-61
2021/07/11 05:18:09;;;;;;;;;;;;;;;26.47;54.68;100570.75;1764318;79;21771;-60
2021/07/11 05:20:35;;;;;;;;;;;;;;;26.45;54.62;100576.69;1771291;79;20238;-61
2021/07/11 05:23:01;;;;;;;;;;;;;;;26.44;54.57;100577.84;1771158;79;20201;-60
2021/07/11 05:25:32;;;;;;;;;;;;;;;26.43;54.49;100581.83;1764886;79;20719;-62
2021/07/11 05:27:55;;;;;;;;;;;;;;;26.41;54.43;100579.98;1769112;79;20527;-61
2021/07/11 05:30:21;;;;;;;;;;;;;;;26.40;54.33;100577.54;1775269;79;21162;-62
2021/07/11 05:32:47;;;;;;;;;;;;;;;26.39;54.26;100577.34;1772616;79;20429;-61
2021/07/11 05:35:13;;;;;;;;;;;;;;;26.38;54.17;100581.30;1780040;79;21389;-62
2021/07/11 05:37:38;;;;;;;;;;;;;;;26.38;54.13;100585.48;1770284;79;22159;-60
2021/07/11 05:40:07;;;;;;;;;;;;;;;26.38;54.08;100579.89;1757267;79;20213;-61
2021/07/11 05:42:33;;;;;;;;;;;;;;;26.36;54.03;100578.27;1738914;78;21092;-61
2021/07/11 05:44:59;;;;;;;;;;;;;;;26.38;53.94;100581.30;1764818;79;20175;-61
2021/07/11 05:47:26;;;;;;;;;;;;;;;26.36;53.90;100595.01;1762024;79;20684;-61
2021/07/11 05:49:52;;;;;;;;;;;;;;;26.36;53.82;100583.85;1756184;79;21305;-60
2021/07/11 05:52:18;;;;;;;;;;;;;;;26.35;53.75;100577.26;1754741;79;20185;-62
2021/07/11 05:54:44;;;;;;;;;;;;;;;26.34;53.69;100579.23;1759079;79;21101;-62
2021/07/11 05:57:09;;;;;;;;;;;;;;;26.36;53.67;100576.06;1763683;79;20189;-62
2021/07/11 05:59:35;;;;;;;;;;;;;;;26.36;53.65;100586.64;1755727;80;20280;-59
2021/07/11 06:02:01;;;;;;;;;;;;;;;26.38;53.64;100581.30;1757997;79;20215;-61
2021/07/11 06:04:27;;;;;;;;;;;;;;;26.37;53.59;100581.88;1737892;80;20216;-61
2021/07/11 06:06:53;;;;;;;;;;;;;;;26.37;53.56;100584.66;1763569;79;21004;-61
2021/07/11 06:09:19;;;;;;;;;;;;;;;26.35;53.52;100581.44;1764204;79;20237;-61
2021/07/11 06:11:45;;;;;;;;;;;;;;;26.39;53.50;100586.52;1765688;79;20258;-60
2021/07/11 06:14:11;;;;;;;;;;;;;;;26.39;53.49;100582.34;1750310;79;20681;-61
2021/07/11 06:16:37;;;;;;;;;;;;;;;26.40;53.47;100581.72;1731910;81;20153;-61
2021/07/11 06:19:03;;;;;;;;;;;;;;;26.39;53.42;100576.75;1759082;79;21173;-61
2021/07/11 06:21:29;;;;;;;;;;;;;;;26.39;53.40;100575.36;1762980;79;20323;-60
2021/07/11 06:23:55;;;;;;;;;;;;;;;26.40;53.37;100581.72;1759506;79;20209;-61
2021/07/11 06:26:20;;;;;;;;;;;;;;;26.41;53.38;100583.34;1748024;79;20170;-61
2021/07/11 06:28:46;;;;;;;;;;;;;;;26.42;53.38;100584.97;1767645;79;20243;-60
2021/07/11 06:31:12;;;;;;;;;;;;;;;26.42;53.41;100584.39;1764840;79;21187;-62
2021/07/11 06:33:38;;;;;;;;;;;;;;;26.43;53.40;100583.23;1767499;79;20336;-61
2021/07/11 06:36:04;;;;;;;;;;;;;;;26.44;53.45;100576.45;1771446;79;20163;-56
2021/07/11 06:38:30;;;;;;;;;;;;;;;26.44;53.45;100582.03;1773112;79;20149;-57
2021/07/11 06:40:56;;;;;;;;;;;;;;;26.46;53.49;100581.09;1763813;79;20275;-63
2021/07/11 06:43:23;;;;;;;;;;;;;;;26.46;53.52;100576.91;1765987;79;21112;-60
2021/07/11 06:45:49;;;;;;;;;;;;;;;26.47;53.53;100571.56;1770278;79;20480;-61
2021/07/11 06:48:15;;;;;;;;;;;;;;;26.50;53.59;100581.17;1765294;79;20126;-61
2021/07/11 06:50:43;;;;;;;;;;;;;;;26.50;53.62;100583.38;1760140;79;20766;-59
2021/07/11 06:53:10;;;;;;;;;;;;;;;26.51;53.62;100581.41;1771814;79;20214;-60
2021/07/11 06:55:36;;;;;;;;;;;;;;;26.52;53.63;100580.23;1772743;80;21222;-59
2021/07/11 06:58:01;;;;;;;;;;;;;;;26.52;53.63;100581.02;1755499;79;20221;-60
2021/07/11 07:00:27;;;;;;;;;;;;;;;26.54;53.66;100583.46;1782245;78;20262;-62
2021/07/11 07:02:53;;;;;;;;;;;;;;;26.55;53.70;100580.31;1759642;79;20767;-61
2021/07/11 07:05:21;;;;;;;;;;;;;;;26.55;53.74;100586.48;1770726;79;20176;-60
2021/07/11 07:07:48;;;;;;;;;;;;;;;26.56;53.78;100585.31;1771747;79;21138;-61
2021/07/11 07:10:14;;;;;;;;;;;;;;;26.56;53.80;100583.34;1763342;79;20180;-61
2021/07/11 07:12:42;;;;;;;;;;;;;;;26.56;53.79;100586.71;1768408;79;20412;-60
2021/07/11 07:15:09;;;;;;;;;;;;;;;26.57;53.79;100584.94;1775272;79;20144;-60
2021/07/11 07:17:34;;;;;;;;;;;;;;;26.56;53.75;100581.95;1764943;79;20425;-60
2021/07/11 07:20:00;;;;;;;;;;;;;;;26.57;53.74;100580.75;1763589;79;21833;-60
2021/07/11 07:22:26;;;;;;;;;;;;;;;26.59;53.72;100585.98;1764525;79;20163;-61
2021/07/11 07:24:52;;;;;;;;;;;;;;;26.60;53.73;100584.23;1770376;79;20182;-61
2021/07/11 07:27:18;;;;;;;;;;;;;;;26.60;53.74;100587.02;1771804;79;20227;-61
2021/07/11 07:29:44;;;;;;;;;;;;;;;26.61;53.75;100591.41;1767014;78;20469;-61
2021/07/11 07:32:10;;;;;;;;;;;;;;;26.61;53.77;100588.61;1785819;78;21079;-61
2021/07/11 07:34:36;;;;;;;;;;;;;;;26.61;53.78;100587.22;1774170;78;21573;-61
2021/07/11 07:37:02;;;;;;;;;;;;;;;26.59;53.79;100579.81;1770182;78;20184;-61
2021/07/11 07:39:28;;;;;;;;;;;;;;;26.63;53.82;100589.07;1778825;78;20492;-61
2021/07/11 07:41:54;;;;;;;;;;;;;;;26.63;53.80;100587.67;1774619;78;20238;-61
2021/07/11 07:44:20;;;;;;;;;;;;;;;26.63;53.86;100591.05;1782550;78;21099;-61
2021/07/11 07:46:46;;;;;;;;;;;;;;;26.65;53.90;100588.72;1782056;78;20187;-60
2021/07/11 07:49:12;;;;;;;;;;;;;;;26.64;53.94;100582.33;1773806;78;20199;-60
2021/07/11 07:51:40;;;;;;;;;;;;;;;26.65;53.95;100590.89;1782216;78;21383;-60
2021/07/11 07:54:06;;;;;;;;;;;;;;;26.66;54.00;100587.52;1777955;78;20244;-60
2021/07/11 07:56:32;;;;;;;;;;;;;;;26.66;54.02;100580.55;1775305;78;21202;-60
2021/07/11 07:58:58;;;;;;;;;;;;;;;26.67;54.03;100589.15;1776377;78;20242;-60
2021/07/11 08:01:24;;;;;;;;;;;;;;;26.67;54.04;100586.36;1775281;78;20242;-63
2021/07/11 08:03:50;;;;;;;;;;;;;;;26.67;54.04;100584.96;1773668;78;20158;-60
2021/07/11 08:06:16;;;;;;;;;;;;;;;26.67;54.07;100578.80;1780581;79;20239;-60
2021/07/11 08:08:41;;;;;;;;;;;;;;;26.68;54.07;100585.19;1771620;78;21128;-60
2021/07/11 08:11:07;;;;;;;;;;;;;;;26.68;54.10;100581.00;1772715;79;20843;-60
2021/07/11 08:13:35;;;;;;;;;;;;;;;26.69;54.11;100581.23;1780563;78;20213;-60
2021/07/11 08:16:02;;;;;;;;;;;;;;;26.69;54.09;100577.83;1779754;78;20183;-59
2021/07/11 08:18:27;;;;;;;;;;;;;;;26.69;54.09;100579.84;1776818;78;20461;-59
2021/07/11 08:20:53;;;;;;;;;;;;;;;26.69;54.12;100573.64;1784637;78;20178;-59
2021/07/11 08:23:19;;;;;;;;;;;;;;;26.71;54.10;100580.27;1775794;78;21530;-52
2021/07/11 08:25:45;;;;;;;;;;;;;;;26.71;54.08;100581.08;1778645;78;20245;-58
2021/07/11 08:28:11;;;;;;;;;;;;;;;26.71;54.07;100582.48;1781351;78;20143;-58
2021/07/11 08:30:37;;;;;;;;;;;;;;;26.72;54.09;100579.91;1769910;79;20179;-58
2021/07/11 08:33:08;;;;;;;;;;;;;;;26.73;54.10;100577.94;1753208;80;21216;-57
2021/07/11 08:35:32;;;;;;;;;;;;;;;26.73;54.10;100585.70;1766181;79;21567;-57
2021/07/11 08:37:58;;;;;;;;;;;;;;;26.74;54.12;100580.34;1769039;79;20186;-57
2021/07/11 08:40:24;;;;;;;;;;;;;;;26.75;54.14;100582.55;1775453;79;20379;-57
2021/07/11 08:42:51;;;;;;;;;;;;;;;26.75;54.13;100581.16;1771957;79;20724;-56
2021/07/11 08:45:16;;;;;;;;;;;;;;;26.75;54.14;100572.78;1771601;79;23281;-57
2021/07/11 08:47:43;;;;;;;;;;;;;;;26.76;54.17;100579.98;1768281;79;20184;-57
2021/07/11 08:50:11;;;;;;;;;;;;;;;26.77;54.16;100580.22;1770748;79;20204;-57
2021/07/11 08:52:37;;;;;;;;;;;;;;;26.77;54.20;100570.45;1774242;79;20455;-57
2021/07/11 08:55:23;;;;;;;;;;;;;;;26.76;54.20;100570.22;1775330;79;20239;-57
2021/07/11 08:57:53;;;;;;;;;;;;;;;26.74;54.15;100565.58;1761175;79;21037;-56
2021/07/11 09:00:26;;;;;;;;;;;;;;;26.71;54.06;100564.34;1765591;79;20785;-57
2021/07/11 09:02:52;;;;;;;;;;;;;;;26.69;53.99;100565.27;1765804;79;20181;-57
2021/07/11 09:05:29;;;;;;;;;;;;;;;26.67;53.90;100559.84;1770142;79;20966;-57
2021/07/11 09:08:05;;;;;;;;;;;;;;;26.65;53.84;100563.61;1769482;79;20226;-57
2021/07/11 09:10:33;;;;;;;;;;;;;;;26.64;53.76;100556.40;1770777;79;21078;-57
2021/07/11 09:13:00;;;;;;;;;;;;;;;26.62;53.64;100561.52;1772853;79;20258;-57
2021/07/11 09:15:33;;;;;;;;;;;;;;;26.60;53.56;100554.93;1769796;79;20196;-58
2021/07/11 09:17:59;;;;;;;;;;;;;;;26.59;53.48;100556.67;1768487;79;20515;-58
2021/07/11 09:20:25;;;;;;;;;;;;;;;26.57;53.36;100561.80;1766929;79;21498;-57
2021/07/11 09:23:00;;;;;;;;;;;;;;;26.56;53.29;100557.41;1767751;79;21055;-57
2021/07/11 09:25:26;;;;;;;;;;;;;;;26.55;53.18;100561.37;1755798;79;20191;-57
2021/07/11 09:27:52;;;;;;;;;;;;;;;26.55;53.09;100560.78;1765458;79;20683;-57
2021/07/11 09:30:18;;;;;;;;;;;;;;;26.53;53.00;100556.72;1769506;79;20665;-57
2021/07/11 09:32:44;;;;;;;;;;;;;;;26.54;52.92;100555.56;1769671;79;20208;-57
2021/07/11 09:35:18;;;;;;;;;;;;;;;26.52;52.82;100552.34;1763877;79;21073;-57
2021/07/11 09:37:52;;;;;;;;;;;;;;;26.52;52.75;100553.13;1765641;79;20474;-56
2021/07/11 09:40:20;;;;;;;;;;;;;;;26.51;52.63;100553.51;1771251;79;20630;-57
2021/07/11 09:42:47;;;;;;;;;;;;;;;26.50;52.52;100551.88;1768180;79;20498;-57
2021/07/11 09:45:21;;;;;;;;;;;;;;;26.48;52.43;100545.87;1768413;79;20227;-57
2021/07/11 09:47:49;;;;;;;;;;;;;;;26.48;52.32;100549.44;1763856;79;21321;-57
2021/07/11 09:50:23;;;;;;;;;;;;;;;26.47;52.24;100545.06;1771883;79;20330;-57
2021/07/11 09:52:50;;;;;;;;;;;;;;;26.46;52.14;100545.41;1754935;79;20257;-58
2021/07/11 09:55:19;;;;;;;;;;;;;;;26.46;52.08;100550.99;1758143;79;22142;-56
2021/07/11 09:57:56;;;;;;;;;;;;;;;26.46;51.98;100548.20;1748785;79;20379;-57
2021/07/11 10:00:24;;;;;;;;;;;;;;;26.46;51.88;100542.04;1768522;79;22094;-56
2021/07/11 10:02:55;;;;;;;;;;;;;;;26.45;51.80;100537.63;1773671;79;20192;-57
2021/07/11 10:05:21;;;;;;;;;;;;;;;26.45;51.69;100539.61;1768355;79;20422;-56
2021/07/11 10:07:47;;;;;;;;;;;;;;;26.44;51.60;100531.03;1761218;79;20205;-56
2021/07/11 10:10:15;;;;;;;;;;;;;;;26.44;51.49;100540.80;1769392;79;20158;-57
2021/07/11 10:12:41;;;;;;;;;;;;;;;26.44;51.42;100539.41;1762991;79;21133;-57
2021/07/11 10:15:12;;;;;;;;;;;;;;;26.43;51.32;100537.78;1732534;80;20148;-57
2021/07/11 10:17:48;;;;;;;;;;;;;;;26.45;51.23;100535.42;1766021;79;20195;-58
2021/07/11 10:20:15;;;;;;;;;;;;;;;26.44;51.10;100540.19;1761957;79;21011;-57
2021/07/11 10:22:47;;;;;;;;;;;;;;;26.44;51.00;100532.43;1758744;79;20216;-58
2021/07/11 10:25:16;;;;;;;;;;;;;;;26.43;50.91;100529.41;1763937;79;21107;-57
2021/07/11 10:27:42;;;;;;;;;;;;;;;26.42;50.78;100520.81;1767647;79;20247;-58
2021/07/11 10:30:09;;;;;;;;;;;;;;;26.42;50.70;100516.62;1763044;79;20287;-58
2021/07/11 10:32:35;;;;;;;;;;;;;;;26.42;50.60;100525.81;1753870;80;20226;-58
2021/07/11 10:35:10;;;;;;;;;;;;;;;26.41;50.50;100518.61;1749751;80;20230;-58
2021/07/11 10:37:45;;;;;;;;;;;;;;;26.41;50.41;100524.77;1752629;80;21181;-58
2021/07/11 10:40:15;;;;;;;;;;;;;;;26.41;50.30;100521.98;1752500;80;20188;-58
2021/07/11 10:42:41;;;;;;;;;;;;;;;26.40;50.20;100523.95;1741929;80;20241;-58
2021/07/11 10:45:09;;;;;;;;;;;;;;;26.40;50.08;100514.19;1741503;80;20178;-58
2021/07/11 10:47:35;;;;;;;;;;;;;;;26.41;49.98;100505.24;1764969;80;20199;-57
2021/07/11 10:50:01;;;;;;;;;;;;;;;26.40;49.89;100502.22;1731514;80;21127;-57
2021/07/11 10:52:27;;;;;;;;;;;;;;;26.40;49.81;100502.22;1751965;80;20691;-59
2021/07/11 10:54:57;;;;;;;;;;;;;;;26.39;49.73;100495.05;1732170;80;20497;-57
2021/07/11 10:57:34;;;;;;;;;;;;;;;26.39;49.65;100488.08;1764316;80;22077;-58
2021/07/11 11:00:19;;;;;;;;;;;;;;;26.38;49.56;100478.09;1751523;80;20275;-58
2021/07/11 11:02:48;;;;;;;;;;;;;;;26.38;49.45;100478.09;1743558;80;21147;-57
2021/07/11 11:05:23;;;;;;;;;;;;;;;26.39;49.36;100478.31;1754489;80;20185;-57
2021/07/11 11:07:55;;;;;;;;;;;;;;;26.39;49.30;100474.13;1740427;80;20130;-55
2021/07/11 11:10:29;;;;;;;;;;;;;;;26.40;49.23;100467.36;1742675;80;20244;-56
2021/07/11 11:13:12;;;;;;;;;;;;;;;26.39;49.19;100472.73;1749100;80;20206;-56
2021/07/11 11:15:48;;;;;;;;;;;;;;;26.38;49.15;100468.33;1702051;80;21094;-56
2021/07/11 11:18:21;;;;;;;;;;;;;;;26.38;49.13;100464.14;1750008;80;20218;-56
2021/07/11 11:20:53;;;;;;;;;;;;;;;26.38;49.11;100455.77;1716206;80;20229;-56
2021/07/11 11:23:19;;;;;;;;;;;;;;;26.38;49.10;100451.00;1743917;80;20216;-55
2021/07/11 11:25:45;;;;;;;;;;;;;;;26.39;49.10;100451.23;1749723;80;20947;-55
2021/07/11 11:28:12;;;;;;;;;;;;;;;26.40;49.11;100451.43;1749170;80;21314;-55
2021/07/11 11:30:38;;;;;;;;;;;;;;;26.41;49.10;100432.72;1756930;80;20200;-56
2021/07/11 11:33:04;;;;;;;;;;;;;;;26.43;49.10;100437.36;1741809;80;20233;-55
2021/07/11 11:35:32;;;;;;;;;;;;;;;26.43;49.08;100427.59;1746876;81;20208;-56
2021/07/11 11:38:03;;;;;;;;;;;;;;;26.45;49.02;100422.44;1744050;80;20340;-56
2021/07/11 11:40:30;;;;;;;;;;;;;;;26.46;48.99;100418.48;1741213;80;21070;-56
2021/07/11 11:42:59;;;;;;;;;;;;;;;26.46;48.95;100410.92;1757018;80;21508;-56
2021/07/11 11:45:28;;;;;;;;;;;;;;;26.49;48.95;100414.37;1728361;80;20416;-55
2021/07/11 11:48:05;;;;;;;;;;;;;;;26.50;48.93;100409.02;1750076;80;20492;-55
2021/07/11 11:50:32;;;;;;;;;;;;;;;26.53;48.90;100413.04;1736603;81;20196;-55
2021/07/11 11:53:10;;;;;;;;;;;;;;;26.52;48.85;100402.47;1743398;81;22170;-56
2021/07/11 11:55:42;;;;;;;;;;;;;;;26.53;48.78;100399.09;1731971;80;20147;-55
2021/07/11 11:58:08;;;;;;;;;;;;;;;26.52;48.70;100391.30;1742879;80;20455;-56
2021/07/11 12:00:35;;;;;;;;;;;;;;;26.52;48.71;100389.13;1755156;80;21243;-56
2021/07/11 12:03:03;;;;;;;;;;;;;;;26.52;48.71;100396.88;1740111;80;20163;-55
2021/07/11 12:05:30;;;;;;;;;;;;;;;26.55;48.72;100397.56;1747746;80;21171;-56
2021/07/11 12:07:57;;;;;;;;;;;;;;;26.58;48.69;100399.61;1747747;80;20185;-56
2021/07/11 12:10:23;;;;;;;;;;;;;;;26.59;48.63;100400.42;1747127;80;20230;-52
2021/07/11 12:12:56;;;;;;;;;;;;;;;26.61;48.59;100392.47;1746863;80;20156;-56
2021/07/11 12:15:34;;;;;;;;;;;;;;;26.60;48.52;100394.48;1745081;80;20134;-53
2021/07/11 12:18:02;;;;;;;;;;;;;;;26.59;48.46;100385.08;1747625;80;22127;-53
2021/07/11 12:20:29;;;;;;;;;;;;;;;26.60;48.42;100391.70;1742715;80;20071;-56
2021/07/11 12:22:55;;;;;;;;;;;;;;;26.61;48.38;100387.70;1740249;80;20411;-52
2021/07/11 12:25:27;;;;;;;;;;;;;;;26.62;48.33;100392.70;1753031;80;20101;-48
2021/07/11 12:27:58;;;;;;;;;;;;;;;26.63;48.32;100388.75;1755668;80;20200;-56
2021/07/11 12:30:18;;;;;;;;;;;;;;;26.66;48.30;100396.37;1734578;80;21146;-56
2021/07/11 12:32:49;;;;;;;;;;;;;;;26.68;48.28;100394.84;1763193;79;20379;-55
2021/07/11 12:35:15;;;;;;;;;;;;;;;26.71;48.24;100385.73;1758073;79;20279;-56
2021/07/11 12:37:53;;;;;;;;;;;;;;;26.70;48.16;100386.89;1765014;78;20878;-56